createdAt,value
2022-11-09T00:01:29.062Z,3.95
2022-11-09T00:03:59.387Z,3.65
2022-11-09T00:06:28.729Z,3.67
2022-11-09T00:09:05.800Z,4.05
2022-11-09T00:11:38.349Z,3.80
2022-11-09T00:14:06.620Z,3.72
2022-11-09T00:16:34.686Z,3.88
2022-11-09T00:19:05.663Z,3.58
2022-11-09T00:21:33.642Z,5.72
2022-11-09T00:24:01.901Z,3.70
2022-11-09T00:26:29.876Z,4.45
2022-11-09T00:28:57.651Z,5.18
2022-11-09T00:31:25.825Z,4.60
2022-11-09T00:33:55.558Z,3.95
2022-11-09T00:36:27.641Z,3.67
2022-11-09T00:38:57.748Z,4.35
2022-11-09T00:41:27.265Z,3.85
2022-11-09T00:43:58.973Z,4.18
2022-11-09T00:46:30.014Z,3.40
2022-11-09T00:48:58.206Z,3.60
2022-11-09T00:51:28.420Z,3.97
2022-11-09T00:53:58.956Z,3.97
2022-11-09T00:56:26.935Z,3.38
2022-11-09T00:58:56.670Z,3.65
2022-11-09T01:01:24.853Z,4.13
2022-11-09T01:03:52.838Z,3.00
2022-11-09T01:06:26.081Z,3.60
2022-11-09T01:08:55.141Z,3.42
2022-11-09T01:11:24.546Z,3.60
2022-11-09T01:13:55.719Z,3.10
2022-11-09T01:16:24.950Z,3.42
2022-11-09T01:18:57.489Z,4.10
2022-11-09T01:21:27.090Z,3.15
2022-11-09T01:23:56.961Z,3.45
2022-11-09T01:26:27.705Z,2.90
2022-11-09T01:28:55.985Z,2.78
2022-11-09T01:31:24.110Z,3.63
2022-11-09T01:33:51.922Z,3.00
2022-11-09T01:36:22.608Z,3.58
2022-11-09T01:38:51.663Z,2.78
2022-11-09T01:41:24.154Z,3.40
2022-11-09T01:44:07.883Z,2.92
2022-11-09T01:46:54.766Z,2.88
2022-11-09T01:49:34.835Z,3.38
2022-11-09T01:52:26.905Z,3.35
2022-11-09T01:55:12.653Z,2.95
2022-11-09T01:57:50.045Z,4.53
2022-11-09T02:00:18.717Z,4.43
2022-11-09T02:03:12.862Z,3.83
2022-11-09T02:08:12.744Z,3.88
2022-11-09T02:11:02.099Z,5.17
2022-11-09T02:13:33.854Z,3.00
2022-11-09T02:16:08.448Z,3.75
2022-11-09T02:21:17.440Z,2.90
2022-11-09T02:23:46.263Z,3.35
2022-11-09T02:26:45.762Z,3.20
2022-11-09T02:29:23.501Z,3.20
2022-11-09T02:32:14.704Z,3.50
2022-11-09T02:34:43.320Z,4.47
2022-11-09T02:37:11.494Z,2.58
2022-11-09T02:39:39.876Z,2.67
2022-11-09T02:42:21.378Z,2.55
2022-11-09T02:44:59.215Z,2.95
2022-11-09T02:47:28.094Z,3.60
2022-11-09T02:49:58.009Z,2.58
2022-11-09T02:52:27.899Z,2.92
2022-11-09T02:54:57.613Z,2.85
2022-11-09T02:57:25.889Z,3.28
2022-11-09T02:59:54.483Z,3.03
2022-11-09T03:02:23.335Z,2.33
2022-11-09T03:04:53.291Z,2.30
2022-11-09T03:07:22.339Z,2.90
2022-11-09T03:09:54.055Z,3.05
2022-11-09T03:12:30.059Z,2.38
2022-11-09T03:15:08.158Z,3.35
2022-11-09T03:17:37.301Z,2.58
2022-11-09T03:20:06.202Z,2.53
2022-11-09T03:22:34.616Z,3.20
2022-11-09T03:25:03.199Z,3.10
2022-11-09T03:27:32.140Z,3.35
2022-11-09T03:30:00.140Z,3.33
2022-11-09T03:32:28.468Z,2.67
2022-11-09T03:34:57.148Z,3.65
2022-11-09T03:37:25.506Z,2.45
2022-11-09T03:39:54.042Z,2.60
2022-11-09T03:42:22.025Z,3.28
2022-11-09T03:44:51.831Z,1.98
2022-11-09T03:47:20.057Z,2.50
2022-11-09T03:49:48.160Z,2.45
2022-11-09T03:52:16.390Z,2.25
2022-11-09T03:54:44.742Z,2.40
2022-11-09T03:57:12.471Z,2.60
2022-11-09T03:59:41.351Z,2.50
2022-11-09T04:02:09.142Z,2.30
2022-11-09T04:04:37.667Z,2.42
2022-11-09T04:07:06.188Z,2.17
2022-11-09T04:09:34.815Z,2.00
2022-11-09T04:12:06.478Z,2.47
2022-11-09T04:14:34.682Z,1.98
2022-11-09T04:17:02.942Z,2.47
2022-11-09T04:19:32.067Z,3.10
2022-11-09T04:22:02.086Z,2.25
2022-11-09T04:24:30.124Z,2.33
2022-11-09T04:26:58.313Z,2.10
2022-11-09T04:29:29.040Z,2.13
2022-11-09T04:31:57.210Z,2.80
2022-11-09T04:34:26.165Z,3.83
2022-11-09T04:36:54.367Z,2.22
2022-11-09T04:39:25.142Z,1.98
2022-11-09T04:41:52.895Z,2.00
2022-11-09T04:44:24.430Z,2.70
2022-11-09T04:46:52.791Z,1.58
2022-11-09T04:49:20.947Z,1.95
2022-11-09T04:51:50.911Z,2.25
2022-11-09T04:54:18.928Z,2.15
2022-11-09T04:56:48.106Z,1.88
2022-11-09T04:59:17.087Z,2.50
2022-11-09T05:01:44.832Z,3.45
2022-11-09T05:04:12.968Z,1.92
2022-11-09T05:06:41.782Z,2.05
2022-11-09T05:09:10.438Z,2.45
2022-11-09T05:11:38.662Z,2.33
2022-11-09T05:14:07.145Z,2.35
2022-11-09T05:16:35.432Z,2.10
2022-11-09T05:19:04.059Z,1.63
2022-11-09T05:21:31.834Z,1.73
2022-11-09T05:23:59.963Z,1.50
2022-11-09T05:26:36.300Z,2.17
2022-11-09T05:29:07.286Z,2.75
2022-11-09T05:34:06.558Z,1.67
2022-11-09T05:36:35.433Z,1.90
2022-11-09T05:39:03.603Z,2.30
2022-11-09T05:41:31.376Z,1.90
2022-11-09T05:43:59.993Z,2.22
2022-11-09T05:46:31.632Z,2.67
2022-11-09T05:49:00.242Z,1.85
2022-11-09T05:51:27.975Z,1.92
2022-11-09T05:53:56.502Z,2.20
2022-11-09T05:56:24.828Z,1.88
2022-11-09T05:58:52.841Z,1.65
2022-11-09T06:01:20.598Z,1.60
2022-11-09T06:03:48.686Z,1.88
2022-11-09T06:06:17.818Z,1.83
2022-11-09T06:08:46.015Z,1.50
2022-11-09T06:11:22.909Z,1.48
2022-11-09T06:13:54.553Z,1.25
2022-11-09T06:16:22.790Z,1.90
2022-11-09T06:18:51.384Z,1.70
2022-11-09T06:21:19.159Z,1.40
2022-11-09T06:23:48.010Z,2.15
2022-11-09T06:26:16.063Z,1.33
2022-11-09T06:28:44.134Z,1.58
2022-11-09T06:31:15.876Z,1.50
2022-11-09T06:33:43.991Z,1.50
2022-11-09T06:36:12.774Z,1.92
2022-11-09T06:38:41.272Z,1.85
2022-11-09T06:41:10.570Z,1.83
2022-11-09T06:43:39.798Z,1.40
2022-11-09T06:46:10.974Z,1.63
2022-11-09T06:48:39.593Z,1.30
2022-11-09T06:51:08.307Z,1.48
2022-11-09T06:53:37.963Z,1.50
2022-11-09T06:56:06.969Z,1.38
2022-11-09T06:58:36.191Z,1.50
2022-11-09T07:01:12.943Z,1.13
2022-11-09T07:03:41.453Z,1.70
2022-11-09T07:06:11.404Z,2.03
2022-11-09T07:08:41.100Z,1.50
2022-11-09T07:11:16.248Z,1.60
2022-11-09T07:13:44.391Z,1.58
2022-11-09T07:16:12.846Z,2.08
2022-11-09T07:18:41.456Z,1.63
2022-11-09T07:21:14.059Z,1.45
2022-11-09T07:23:43.376Z,1.50
2022-11-09T07:26:11.236Z,1.80
2022-11-09T07:28:40.348Z,1.80
2022-11-09T07:31:08.479Z,1.30
2022-11-09T07:33:36.978Z,1.60
2022-11-09T07:36:05.834Z,1.80
2022-11-09T07:38:34.040Z,1.55
2022-11-09T07:41:02.827Z,1.38
2022-11-09T07:43:30.993Z,2.38
2022-11-09T07:46:04.352Z,1.58
2022-11-09T07:48:32.639Z,1.40
2022-11-09T07:51:02.292Z,1.50
2022-11-09T07:53:31.267Z,2.05
2022-11-09T07:56:01.485Z,1.85
2022-11-09T07:58:30.151Z,1.90
2022-11-09T08:00:58.222Z,1.50
2022-11-09T08:03:27.333Z,1.70
2022-11-09T08:05:56.973Z,2.17
2022-11-09T08:08:25.616Z,2.00
2022-11-09T08:10:53.765Z,1.65
2022-11-09T08:13:22.731Z,2.08
2022-11-09T08:15:50.724Z,1.88
2022-11-09T08:18:21.287Z,1.83
2022-11-09T08:20:50.241Z,2.30
2022-11-09T08:23:21.146Z,3.13
2022-11-09T08:25:51.867Z,1.75
2022-11-09T08:28:21.107Z,1.90
2022-11-09T08:31:01.292Z,1.80
2022-11-09T08:33:31.569Z,1.77
2022-11-09T08:35:59.568Z,1.58
2022-11-09T08:38:28.099Z,1.75
2022-11-09T08:40:59.537Z,1.50
2022-11-09T08:43:27.746Z,1.52
2022-11-09T08:45:56.038Z,1.70
2022-11-09T08:48:24.139Z,1.60
2022-11-09T08:50:54.419Z,1.50
2022-11-09T08:53:26.221Z,1.50
2022-11-09T08:55:54.922Z,1.45
2022-11-09T08:58:24.239Z,1.50
2022-11-09T09:00:52.383Z,1.33
2022-11-09T09:03:20.885Z,1.50
2022-11-09T09:05:48.621Z,1.77
2022-11-09T09:08:22.024Z,1.30
2022-11-09T09:10:51.068Z,1.52
2022-11-09T09:13:22.596Z,1.38
2022-11-09T09:15:51.153Z,2.58
2022-11-09T09:18:20.312Z,1.50
2022-11-09T09:20:48.890Z,1.45
2022-11-09T09:23:18.258Z,1.58
2022-11-09T09:25:46.497Z,1.38
2022-11-09T09:28:14.482Z,1.95
2022-11-09T09:30:43.144Z,1.35
2022-11-09T09:33:12.003Z,1.00
2022-11-09T09:35:39.748Z,1.23
2022-11-09T09:38:07.827Z,1.50
2022-11-09T09:40:43.699Z,1.50
2022-11-09T09:43:32.100Z,1.02
2022-11-09T09:46:06.281Z,1.90
2022-11-09T09:48:47.611Z,1.30
2022-11-09T09:51:36.284Z,1.48
2022-11-09T09:54:14.999Z,1.73
2022-11-09T09:56:45.475Z,1.85
2022-11-09T09:59:43.808Z,1.45
2022-11-09T10:02:31.031Z,1.42
2022-11-09T10:05:02.479Z,1.60
2022-11-09T10:07:42.178Z,1.55
2022-11-09T10:10:16.442Z,1.55
2022-11-09T10:13:13.752Z,1.70
2022-11-09T10:15:54.489Z,1.40
2022-11-09T10:18:32.945Z,2.40
2022-11-09T10:21:37.678Z,3.10
2022-11-09T10:24:14.314Z,1.70
2022-11-09T10:26:52.662Z,1.45
2022-11-09T10:29:26.999Z,1.45
2022-11-09T10:32:01.759Z,1.60
2022-11-09T10:34:54.647Z,1.90
2022-11-09T10:37:46.448Z,1.50
2022-11-09T10:40:38.106Z,2.13
2022-11-09T10:43:25.028Z,1.60
2022-11-09T10:46:12.413Z,1.98
2022-11-09T10:49:19.631Z,1.70
2022-11-09T10:52:27.617Z,1.48
2022-11-09T10:55:23.238Z,1.55
2022-11-09T10:58:39.701Z,1.75
2022-11-09T11:01:36.859Z,2.20
2022-11-09T11:04:25.690Z,2.10
2022-11-09T11:07:21.534Z,2.00
2022-11-09T11:10:17.604Z,2.10
2022-11-09T11:13:04.290Z,1.95
2022-11-09T11:15:52.156Z,2.35
2022-11-09T11:18:46.213Z,1.90
2022-11-09T11:21:32.583Z,1.40
2022-11-09T11:24:21.074Z,1.40
2022-11-09T11:27:43.056Z,1.80
2022-11-09T11:30:36.232Z,1.80
2022-11-09T11:33:23.174Z,2.05
2022-11-09T11:36:19.872Z,1.63
2022-11-09T11:39:29.848Z,1.83
2022-11-09T11:42:38.910Z,2.30
2022-11-09T11:45:57.481Z,1.80
2022-11-09T11:48:44.288Z,2.00
2022-11-09T11:51:59.999Z,2.63
2022-11-09T11:55:07.956Z,2.10
2022-11-09T11:57:56.892Z,1.70
2022-11-09T12:00:58.926Z,1.60
2022-11-09T12:04:01.329Z,1.70
2022-11-09T12:07:29.244Z,1.75
2022-11-09T12:10:41.221Z,1.60
2022-11-09T12:16:36.365Z,1.58
2022-11-09T12:19:53.872Z,2.15
2022-11-09T12:23:21.724Z,1.80
2022-11-09T12:26:23.750Z,1.60
2022-11-09T12:29:10.587Z,1.90
2022-11-09T12:32:15.982Z,1.67
2022-11-09T12:35:43.744Z,1.65
2022-11-09T12:38:37.111Z,2.45
2022-11-09T12:41:28.843Z,2.35
2022-11-09T12:47:16.427Z,2.45
2022-11-09T12:50:04.926Z,2.00
2022-11-09T12:52:52.886Z,1.80
2022-11-09T12:55:54.827Z,1.90
2022-11-09T12:58:41.749Z,1.80
2022-11-09T13:01:33.994Z,1.88
2022-11-09T13:04:23.571Z,1.80
2022-11-09T13:07:27.899Z,2.00
2022-11-09T13:10:35.004Z,1.77
2022-11-09T13:13:24.647Z,1.95
2022-11-09T13:16:20.180Z,2.08
2022-11-09T13:19:09.159Z,2.45
2022-11-09T13:21:55.384Z,2.08
2022-11-09T13:25:02.312Z,2.60
2022-11-09T13:27:49.186Z,1.70
2022-11-09T13:30:42.299Z,2.00
2022-11-09T13:33:36.039Z,1.90
2022-11-09T13:36:23.092Z,1.88
2022-11-09T13:39:32.659Z,2.38
2022-11-09T13:42:33.952Z,2.38
2022-11-09T13:45:48.293Z,2.00
2022-11-09T13:48:54.142Z,1.92
2022-11-09T13:51:48.089Z,1.92
2022-11-09T13:54:42.472Z,1.98
2022-11-09T13:57:31.873Z,2.10
2022-11-09T14:00:24.048Z,2.20
2022-11-09T14:03:28.990Z,2.50
2022-11-09T14:06:16.260Z,2.58
2022-11-09T14:09:04.430Z,3.13
2022-11-09T14:12:16.557Z,2.58
2022-11-09T14:15:32.627Z,2.10
2022-11-09T14:18:28.465Z,1.95
2022-11-09T14:21:45.502Z,2.60
2022-11-09T14:24:33.610Z,2.72
2022-11-09T14:27:22.476Z,2.10
2022-11-09T14:30:31.816Z,2.58
2022-11-09T14:36:45.160Z,2.40
2022-11-09T14:37:56.872Z,2.23
2022-11-09T14:41:26.811Z,2.28
2022-11-09T14:44:38.984Z,2.05
2022-11-09T14:47:42.783Z,2.75
2022-11-09T14:51:25.983Z,2.03
2022-11-09T14:54:37.814Z,1.80
2022-11-09T14:58:06.525Z,1.75
2022-11-09T15:01:30.154Z,2.20
2022-11-09T15:04:27.812Z,3.25
2022-11-09T15:07:25.422Z,3.15
2022-11-09T15:10:30.758Z,2.42
2022-11-09T15:14:02.613Z,2.15
2022-11-09T15:17:40.559Z,2.97
2022-11-09T15:20:38.195Z,2.38
2022-11-09T15:24:05.907Z,2.60
2022-11-09T15:27:05.945Z,3.38
2022-11-09T15:30:07.401Z,2.30
2022-11-09T15:33:24.490Z,3.22
2022-11-09T15:36:25.415Z,2.40
2022-11-09T15:39:21.284Z,2.78
2022-11-09T15:42:13.733Z,3.00
2022-11-09T15:45:07.609Z,2.90
2022-11-09T15:48:07.353Z,2.47
2022-11-09T15:51:13.358Z,2.37
2022-11-09T15:54:16.281Z,2.70
2022-11-09T15:57:21.940Z,2.65
2022-11-09T16:00:27.717Z,2.40
2022-11-09T16:03:29.473Z,2.20
2022-11-09T16:06:34.951Z,2.22
2022-11-09T16:09:28.953Z,2.78
2022-11-09T16:12:19.656Z,2.30
2022-11-09T16:15:16.575Z,2.50
2022-11-09T16:18:53.656Z,2.95
2022-11-09T16:21:47.578Z,2.30
2022-11-09T16:24:41.599Z,2.67
2022-11-09T16:27:50.506Z,2.42
2022-11-09T16:30:44.161Z,2.75
2022-11-09T16:33:35.046Z,3.58
2022-11-09T16:36:47.948Z,3.53
2022-11-09T16:39:37.971Z,3.35
2022-11-09T16:42:26.239Z,3.92
2022-11-09T16:45:15.261Z,3.08
2022-11-09T16:48:04.602Z,3.05
2022-11-09T16:50:53.605Z,2.58
2022-11-09T16:53:40.851Z,3.50
2022-11-09T16:56:27.417Z,3.70
2022-11-09T16:59:14.495Z,2.72
2022-11-09T17:02:03.205Z,2.60
2022-11-09T17:04:50.537Z,3.58
2022-11-09T17:07:42.715Z,3.08
2022-11-09T17:10:29.580Z,2.78
2022-11-09T17:13:16.577Z,2.42
2022-11-09T17:16:08.683Z,2.60
2022-11-09T17:18:57.075Z,2.70
2022-11-09T17:21:43.965Z,2.50
2022-11-09T17:24:32.548Z,3.08
2022-11-09T17:27:19.396Z,2.75
2022-11-09T17:30:07.633Z,2.88
2022-11-09T17:32:54.637Z,2.50
2022-11-09T17:35:41.606Z,2.40
2022-11-09T17:38:30.116Z,2.97
2022-11-09T17:41:19.803Z,2.40
2022-11-09T17:44:06.094Z,2.53
2022-11-09T17:46:53.284Z,2.50
2022-11-09T17:49:40.267Z,2.40
2022-11-09T17:52:27.549Z,3.50
2022-11-09T17:55:13.971Z,3.50
2022-11-09T17:58:01.130Z,3.30
2022-11-09T18:00:47.719Z,2.72
2022-11-09T18:03:38.456Z,2.90
2022-11-09T18:06:25.607Z,3.83
2022-11-09T18:09:40.311Z,3.63
2022-11-09T18:12:18.980Z,3.80
2022-11-09T18:15:06.113Z,3.00
2022-11-09T18:17:55.424Z,3.03
2022-11-09T18:20:42.443Z,3.17
2022-11-09T18:23:28.767Z,3.35
2022-11-09T18:26:15.367Z,3.35
2022-11-09T18:29:01.903Z,3.00
2022-11-09T18:31:49.566Z,3.15
2022-11-09T18:34:35.839Z,3.53
2022-11-09T18:37:23.185Z,2.92
2022-11-09T18:40:10.433Z,2.90
2022-11-09T18:43:00.404Z,2.97
2022-11-09T18:45:54.922Z,3.38
2022-11-09T18:48:41.953Z,3.15
2022-11-09T18:51:28.279Z,3.15
2022-11-09T18:54:15.521Z,2.83
2022-11-09T18:57:02.935Z,3.05
2022-11-09T18:59:50.098Z,3.15
2022-11-09T19:02:36.786Z,2.70
2022-11-09T19:05:23.838Z,3.20
2022-11-09T19:08:11.000Z,3.60
2022-11-09T19:11:03.458Z,3.00
2022-11-09T19:13:50.024Z,3.25
2022-11-09T19:16:37.107Z,3.97
2022-11-09T19:19:24.711Z,3.65
2022-11-09T19:22:17.011Z,3.03
2022-11-09T19:25:04.447Z,4.13
2022-11-09T19:27:54.007Z,3.30
2022-11-09T19:30:40.705Z,3.33
2022-11-09T19:33:27.232Z,2.92
2022-11-09T19:36:29.627Z,3.00
2022-11-09T19:39:17.528Z,2.80
2022-11-09T19:42:04.183Z,3.38
2022-11-09T19:44:55.159Z,3.03
2022-11-09T19:47:42.782Z,3.33
2022-11-09T19:50:29.421Z,3.17
2022-11-09T19:53:16.473Z,3.50
2022-11-09T19:56:05.442Z,3.58
2022-11-09T19:58:55.129Z,3.03
2022-11-09T20:01:42.790Z,3.42
2022-11-09T20:04:29.252Z,3.17
2022-11-09T20:07:16.589Z,3.58
2022-11-09T20:10:06.547Z,2.90
2022-11-09T20:12:55.558Z,2.92
2022-11-09T20:15:42.742Z,3.20
2022-11-09T20:18:30.342Z,3.65
2022-11-09T20:21:16.830Z,2.92
2022-11-09T20:24:06.791Z,2.90
2022-11-09T20:26:53.338Z,3.45
2022-11-09T20:29:40.300Z,4.47
2022-11-09T20:32:26.643Z,2.92
2022-11-09T20:35:13.836Z,4.55
2022-11-09T20:38:00.090Z,3.08
2022-11-09T20:40:56.772Z,3.10
2022-11-09T20:43:45.420Z,2.53
2022-11-09T20:46:36.250Z,3.20
2022-11-09T20:49:23.957Z,3.08
2022-11-09T20:52:10.458Z,3.60
2022-11-09T20:54:56.605Z,3.22
2022-11-09T20:57:43.399Z,3.38
2022-11-09T21:00:31.002Z,2.80
2022-11-09T21:03:17.822Z,3.25
2022-11-09T21:06:08.134Z,3.00
2022-11-09T21:08:56.176Z,3.33
2022-11-09T21:12:01.981Z,3.67
2022-11-09T21:14:48.978Z,3.35
2022-11-09T21:17:35.163Z,3.05
2022-11-09T21:20:22.180Z,3.92
2022-11-09T21:23:12.846Z,2.95
2022-11-09T21:26:35.671Z,3.35
2022-11-09T21:29:42.787Z,3.40
2022-11-09T21:32:30.762Z,3.13
2022-11-09T21:35:17.331Z,3.22
2022-11-09T21:38:04.041Z,3.30
2022-11-09T21:40:50.966Z,3.20
2022-11-09T21:43:38.405Z,4.75
2022-11-09T21:46:25.181Z,3.85
2022-11-09T21:49:14.206Z,4.07
2022-11-09T21:52:01.161Z,3.05
2022-11-09T21:54:48.297Z,3.63
2022-11-09T21:57:37.480Z,3.42
2022-11-09T22:00:23.889Z,4.00
2022-11-09T22:03:10.068Z,3.83
2022-11-09T22:05:57.284Z,3.00
2022-11-09T22:08:44.810Z,4.32
2022-11-09T22:11:52.148Z,3.50
2022-11-09T22:14:59.635Z,3.25
2022-11-09T22:17:46.242Z,3.65
2022-11-09T22:20:54.715Z,3.35
2022-11-09T22:23:41.929Z,2.90
2022-11-09T22:26:30.121Z,3.20
2022-11-09T22:29:16.873Z,3.90
2022-11-09T22:32:03.738Z,3.22
2022-11-09T22:34:50.720Z,2.50
2022-11-09T22:37:37.351Z,3.83
2022-11-09T22:40:24.011Z,3.15
2022-11-09T22:43:11.127Z,3.35
2022-11-09T22:46:07.334Z,2.97
2022-11-09T22:48:54.223Z,4.07
2022-11-09T22:51:40.675Z,3.05
2022-11-09T22:54:27.973Z,3.58
2022-11-09T22:57:14.451Z,3.30
2022-11-09T23:00:00.812Z,3.30
2022-11-09T23:02:50.339Z,3.78
2022-11-09T23:05:37.078Z,3.33
2022-11-09T23:08:24.010Z,3.05
2022-11-09T23:11:16.840Z,4.00
2022-11-09T23:14:04.212Z,4.35
2022-11-09T23:16:50.736Z,3.15
2022-11-09T23:19:37.653Z,3.05
2022-11-09T23:22:24.220Z,3.80
2022-11-09T23:25:30.752Z,3.55
2022-11-09T23:28:17.653Z,3.40
2022-11-09T23:31:08.907Z,4.32
2022-11-09T23:33:57.352Z,3.92
2022-11-09T23:36:43.973Z,3.53
2022-11-09T23:39:30.095Z,4.45
2022-11-09T23:42:16.954Z,3.72
2022-11-09T23:45:03.343Z,3.72
2022-11-09T23:47:52.231Z,3.35
2022-11-09T23:50:38.754Z,3.67
2022-11-09T23:53:26.838Z,4.03
2022-11-09T23:56:13.519Z,3.97
2022-11-09T23:58:59.983Z,4.47
